sensor_id;sensor_type;location;lat;lon;timestamp;P1;durP1;ratioP1;P2;durP2;ratioP2
51724;SDS011;37801;53.224;6.552;2023-01-31T00:00:47;17.38;;;2.90;;
51724;SDS011;37801;53.224;6.552;2023-01-31T00:03:13;14.38;;;2.97;;
51724;SDS011;37801;53.224;6.552;2023-01-31T00:05:39;18.23;;;2.53;;
51724;SDS011;37801;53.224;6.552;2023-01-31T00:08:05;16.85;;;2.70;;
51724;SDS011;37801;53.224;6.552;2023-01-31T00:10:31;13.70;;;3.00;;
51724;SDS011;37801;53.224;6.552;2023-01-31T00:12:57;20.13;;;2.75;;
51724;SDS011;37801;53.224;6.552;2023-01-31T00:15:23;12.95;;;3.20;;
51724;SDS011;37801;53.224;6.552;2023-01-31T00:17:49;19.17;;;2.95;;
51724;SDS011;37801;53.224;6.552;2023-01-31T00:20:16;17.55;;;3.03;;
51724;SDS011;37801;53.224;6.552;2023-01-31T00:22:43;16.45;;;2.95;;
51724;SDS011;37801;53.224;6.552;2023-01-31T00:25:09;19.05;;;2.53;;
51724;SDS011;37801;53.224;6.552;2023-01-31T00:27:35;15.50;;;2.60;;
51724;SDS011;37801;53.224;6.552;2023-01-31T00:30:01;17.23;;;2.90;;
51724;SDS011;37801;53.224;6.552;2023-01-31T00:32:27;17.05;;;3.15;;
51724;SDS011;37801;53.224;6.552;2023-01-31T00:34:53;21.80;;;3.45;;
51724;SDS011;37801;53.224;6.552;2023-01-31T00:37:20;19.58;;;3.20;;
51724;SDS011;37801;53.224;6.552;2023-01-31T00:39:46;19.05;;;2.72;;
51724;SDS011;37801;53.224;6.552;2023-01-31T00:42:12;16.05;;;2.58;;
51724;SDS011;37801;53.224;6.552;2023-01-31T00:44:39;25.08;;;4.03;;
51724;SDS011;37801;53.224;6.552;2023-01-31T00:47:05;16.05;;;2.70;;
51724;SDS011;37801;53.224;6.552;2023-01-31T00:49:31;19.65;;;2.80;;
51724;SDS011;37801;53.224;6.552;2023-01-31T00:51:57;14.68;;;2.42;;
51724;SDS011;37801;53.224;6.552;2023-01-31T00:54:23;16.92;;;3.30;;
51724;SDS011;37801;53.224;6.552;2023-01-31T00:56:49;18.10;;;3.20;;
51724;SDS011;37801;53.224;6.552;2023-01-31T00:59:15;19.27;;;2.78;;
51724;SDS011;37801;53.224;6.552;2023-01-31T01:01:42;17.48;;;2.95;;
51724;SDS011;37801;53.224;6.552;2023-01-31T01:04:08;15.05;;;2.90;;
51724;SDS011;37801;53.224;6.552;2023-01-31T01:06:37;16.30;;;3.35;;
51724;SDS011;37801;53.224;6.552;2023-01-31T01:09:03;16.85;;;2.67;;
51724;SDS011;37801;53.224;6.552;2023-01-31T01:11:30;17.55;;;3.05;;
51724;SDS011;37801;53.224;6.552;2023-01-31T01:13:57;15.98;;;2.35;;
51724;SDS011;37801;53.224;6.552;2023-01-31T01:16:25;10.57;;;2.22;;
51724;SDS011;37801;53.224;6.552;2023-01-31T01:18:52;11.05;;;2.60;;
51724;SDS011;37801;53.224;6.552;2023-01-31T01:21:20;16.15;;;3.15;;
51724;SDS011;37801;53.224;6.552;2023-01-31T01:23:47;16.77;;;2.78;;
51724;SDS011;37801;53.224;6.552;2023-01-31T01:26:14;12.55;;;2.30;;
51724;SDS011;37801;53.224;6.552;2023-01-31T01:28:40;15.10;;;2.45;;
51724;SDS011;37801;53.224;6.552;2023-01-31T01:31:07;13.85;;;2.33;;
51724;SDS011;37801;53.224;6.552;2023-01-31T01:33:34;15.50;;;2.78;;
51724;SDS011;37801;53.224;6.552;2023-01-31T01:36:04;17.25;;;3.33;;
51724;SDS011;37801;53.224;6.552;2023-01-31T01:38:33;15.90;;;3.13;;
51724;SDS011;37801;53.224;6.552;2023-01-31T01:40:59;16.30;;;2.90;;
51724;SDS011;37801;53.224;6.552;2023-01-31T01:46:32;15.23;;;2.40;;
51724;SDS011;37801;53.224;6.552;2023-01-31T01:49:00;11.52;;;2.67;;
51724;SDS011;37801;53.224;6.552;2023-01-31T01:51:28;18.98;;;2.88;;
51724;SDS011;37801;53.224;6.552;2023-01-31T01:53:55;14.95;;;2.38;;
51724;SDS011;37801;53.224;6.552;2023-01-31T01:56:26;16.23;;;2.72;;
51724;SDS011;37801;53.224;6.552;2023-01-31T02:01:22;11.77;;;2.22;;
51724;SDS011;37801;53.224;6.552;2023-01-31T02:03:49;13.20;;;2.28;;
51724;SDS011;37801;53.224;6.552;2023-01-31T02:06:16;18.25;;;2.85;;
51724;SDS011;37801;53.224;6.552;2023-01-31T02:08:43;13.88;;;2.42;;
51724;SDS011;37801;53.224;6.552;2023-01-31T02:11:26;10.85;;;2.13;;
51724;SDS011;37801;53.224;6.552;2023-01-31T02:13:56;14.38;;;2.53;;
51724;SDS011;37801;53.224;6.552;2023-01-31T02:16:23;12.80;;;2.33;;
51724;SDS011;37801;53.224;6.552;2023-01-31T02:18:49;15.85;;;2.80;;
51724;SDS011;37801;53.224;6.552;2023-01-31T02:31:16;15.57;;;2.25;;
51724;SDS011;37801;53.224;6.552;2023-01-31T02:46:38;17.80;;;2.50;;
51724;SDS011;37801;53.224;6.552;2023-01-31T02:49:50;12.40;;;2.67;;
51724;SDS011;37801;53.224;6.552;2023-01-31T02:52:04;15.88;;;2.42;;
51724;SDS011;37801;53.224;6.552;2023-01-31T02:54:40;17.60;;;2.67;;
51724;SDS011;37801;53.224;6.552;2023-01-31T02:57:26;13.75;;;2.67;;
51724;SDS011;37801;53.224;6.552;2023-01-31T02:59:52;11.45;;;1.90;;
51724;SDS011;37801;53.224;6.552;2023-01-31T03:02:19;12.45;;;2.88;;
51724;SDS011;37801;53.224;6.552;2023-01-31T03:04:45;12.32;;;1.77;;
51724;SDS011;37801;53.224;6.552;2023-01-31T03:07:14;17.65;;;2.47;;
51724;SDS011;37801;53.224;6.552;2023-01-31T03:17:30;10.80;;;2.10;;
51724;SDS011;37801;53.224;6.552;2023-01-31T03:19:59;18.60;;;2.80;;
51724;SDS011;37801;53.224;6.552;2023-01-31T03:22:29;18.88;;;2.60;;
51724;SDS011;37801;53.224;6.552;2023-01-31T03:24:56;15.82;;;2.42;;
51724;SDS011;37801;53.224;6.552;2023-01-31T03:27:24;11.88;;;1.98;;
51724;SDS011;37801;53.224;6.552;2023-01-31T03:29:52;18.23;;;2.42;;
51724;SDS011;37801;53.224;6.552;2023-01-31T03:32:22;14.82;;;2.65;;
51724;SDS011;37801;53.224;6.552;2023-01-31T03:34:49;6.70;;;1.35;;
51724;SDS011;37801;53.224;6.552;2023-01-31T03:37:20;10.07;;;1.83;;
51724;SDS011;37801;53.224;6.552;2023-01-31T03:42:18;9.52;;;1.80;;
51724;SDS011;37801;53.224;6.552;2023-01-31T03:47:38;14.68;;;2.80;;
51724;SDS011;37801;53.224;6.552;2023-01-31T03:50:06;11.95;;;2.38;;
51724;SDS011;37801;53.224;6.552;2023-01-31T03:52:37;12.10;;;2.42;;
51724;SDS011;37801;53.224;6.552;2023-01-31T03:55:15;13.45;;;2.72;;
51724;SDS011;37801;53.224;6.552;2023-01-31T03:57:44;13.13;;;2.40;;
51724;SDS011;37801;53.224;6.552;2023-01-31T04:00:12;10.32;;;2.30;;
51724;SDS011;37801;53.224;6.552;2023-01-31T04:02:39;11.75;;;2.17;;
51724;SDS011;37801;53.224;6.552;2023-01-31T04:05:07;8.35;;;2.17;;
51724;SDS011;37801;53.224;6.552;2023-01-31T04:07:34;11.65;;;2.13;;
51724;SDS011;37801;53.224;6.552;2023-01-31T04:10:00;14.90;;;2.35;;
51724;SDS011;37801;53.224;6.552;2023-01-31T04:12:27;12.90;;;2.25;;
51724;SDS011;37801;53.224;6.552;2023-01-31T04:14:53;13.60;;;2.40;;
51724;SDS011;37801;53.224;6.552;2023-01-31T04:17:19;14.00;;;2.65;;
51724;SDS011;37801;53.224;6.552;2023-01-31T04:19:45;15.43;;;2.58;;
51724;SDS011;37801;53.224;6.552;2023-01-31T04:22:11;14.05;;;2.17;;
51724;SDS011;37801;53.224;6.552;2023-01-31T04:24:37;18.85;;;3.25;;
51724;SDS011;37801;53.224;6.552;2023-01-31T04:27:03;15.90;;;3.33;;
51724;SDS011;37801;53.224;6.552;2023-01-31T04:29:29;15.73;;;2.75;;
51724;SDS011;37801;53.224;6.552;2023-01-31T04:31:56;11.30;;;2.15;;
51724;SDS011;37801;53.224;6.552;2023-01-31T04:34:22;11.93;;;2.50;;
51724;SDS011;37801;53.224;6.552;2023-01-31T04:36:48;12.07;;;2.47;;
51724;SDS011;37801;53.224;6.552;2023-01-31T04:39:14;13.68;;;2.72;;
51724;SDS011;37801;53.224;6.552;2023-01-31T04:41:40;20.35;;;3.95;;
51724;SDS011;37801;53.224;6.552;2023-01-31T04:44:06;16.50;;;3.42;;
51724;SDS011;37801;53.224;6.552;2023-01-31T04:46:32;19.13;;;3.53;;
51724;SDS011;37801;53.224;6.552;2023-01-31T04:48:59;14.95;;;3.38;;
51724;SDS011;37801;53.224;6.552;2023-01-31T04:51:25;20.02;;;3.13;;
51724;SDS011;37801;53.224;6.552;2023-01-31T04:53:51;11.48;;;3.13;;
51724;SDS011;37801;53.224;6.552;2023-01-31T04:56:17;19.45;;;3.60;;
51724;SDS011;37801;53.224;6.552;2023-01-31T04:58:43;21.08;;;3.72;;
51724;SDS011;37801;53.224;6.552;2023-01-31T05:01:09;16.55;;;3.33;;
51724;SDS011;37801;53.224;6.552;2023-01-31T05:03:36;21.23;;;3.53;;
51724;SDS011;37801;53.224;6.552;2023-01-31T05:06:02;13.65;;;3.13;;
51724;SDS011;37801;53.224;6.552;2023-01-31T05:08:28;18.70;;;3.90;;
51724;SDS011;37801;53.224;6.552;2023-01-31T05:10:58;22.90;;;3.67;;
51724;SDS011;37801;53.224;6.552;2023-01-31T05:13:24;18.00;;;3.53;;
51724;SDS011;37801;53.224;6.552;2023-01-31T05:15:51;21.60;;;4.45;;
51724;SDS011;37801;53.224;6.552;2023-01-31T05:18:17;21.00;;;3.50;;
51724;SDS011;37801;53.224;6.552;2023-01-31T05:20:43;19.30;;;3.65;;
51724;SDS011;37801;53.224;6.552;2023-01-31T05:23:09;18.17;;;4.15;;
51724;SDS011;37801;53.224;6.552;2023-01-31T05:25:37;18.73;;;3.45;;
51724;SDS011;37801;53.224;6.552;2023-01-31T05:28:04;18.35;;;3.67;;
51724;SDS011;37801;53.224;6.552;2023-01-31T05:30:30;18.00;;;3.47;;
51724;SDS011;37801;53.224;6.552;2023-01-31T05:32:56;16.83;;;3.45;;
51724;SDS011;37801;53.224;6.552;2023-01-31T05:35:22;21.05;;;4.00;;
51724;SDS011;37801;53.224;6.552;2023-01-31T05:37:48;16.38;;;3.15;;
51724;SDS011;37801;53.224;6.552;2023-01-31T05:40:15;23.63;;;3.85;;
51724;SDS011;37801;53.224;6.552;2023-01-31T05:42:42;20.70;;;3.80;;
51724;SDS011;37801;53.224;6.552;2023-01-31T05:45:08;15.73;;;3.08;;
51724;SDS011;37801;53.224;6.552;2023-01-31T05:47:35;15.25;;;3.15;;
51724;SDS011;37801;53.224;6.552;2023-01-31T05:50:01;16.27;;;3.53;;
51724;SDS011;37801;53.224;6.552;2023-01-31T05:52:27;21.73;;;4.28;;
51724;SDS011;37801;53.224;6.552;2023-01-31T05:54:53;19.58;;;4.05;;
51724;SDS011;37801;53.224;6.552;2023-01-31T05:57:20;15.18;;;3.47;;
51724;SDS011;37801;53.224;6.552;2023-01-31T05:59:46;21.92;;;3.92;;
51724;SDS011;37801;53.224;6.552;2023-01-31T06:02:13;18.00;;;3.55;;
51724;SDS011;37801;53.224;6.552;2023-01-31T06:04:39;21.33;;;3.70;;
51724;SDS011;37801;53.224;6.552;2023-01-31T06:07:05;18.48;;;3.88;;
51724;SDS011;37801;53.224;6.552;2023-01-31T06:09:31;19.55;;;4.07;;
51724;SDS011;37801;53.224;6.552;2023-01-31T06:11:57;19.23;;;4.13;;
51724;SDS011;37801;53.224;6.552;2023-01-31T06:14:23;17.63;;;3.50;;
51724;SDS011;37801;53.224;6.552;2023-01-31T06:16:49;19.75;;;4.47;;
51724;SDS011;37801;53.224;6.552;2023-01-31T06:19:15;21.45;;;4.15;;
51724;SDS011;37801;53.224;6.552;2023-01-31T06:21:42;23.70;;;3.70;;
51724;SDS011;37801;53.224;6.552;2023-01-31T06:24:08;18.08;;;3.70;;
51724;SDS011;37801;53.224;6.552;2023-01-31T06:26:34;15.02;;;3.58;;
51724;SDS011;37801;53.224;6.552;2023-01-31T06:29:00;23.50;;;4.30;;
51724;SDS011;37801;53.224;6.552;2023-01-31T06:31:26;17.92;;;3.65;;
51724;SDS011;37801;53.224;6.552;2023-01-31T06:33:52;19.75;;;4.22;;
51724;SDS011;37801;53.224;6.552;2023-01-31T06:36:18;21.77;;;3.47;;
51724;SDS011;37801;53.224;6.552;2023-01-31T06:38:48;23.30;;;3.92;;
51724;SDS011;37801;53.224;6.552;2023-01-31T06:41:15;18.38;;;3.75;;
51724;SDS011;37801;53.224;6.552;2023-01-31T06:43:41;18.00;;;3.58;;
51724;SDS011;37801;53.224;6.552;2023-01-31T06:46:07;15.38;;;3.40;;
51724;SDS011;37801;53.224;6.552;2023-01-31T06:48:33;15.90;;;4.07;;
51724;SDS011;37801;53.224;6.552;2023-01-31T06:50:59;22.38;;;4.13;;
51724;SDS011;37801;53.224;6.552;2023-01-31T06:53:25;21.27;;;3.78;;
51724;SDS011;37801;53.224;6.552;2023-01-31T06:55:51;17.08;;;3.72;;
51724;SDS011;37801;53.224;6.552;2023-01-31T06:58:18;20.00;;;4.03;;
51724;SDS011;37801;53.224;6.552;2023-01-31T07:00:44;20.30;;;3.38;;
51724;SDS011;37801;53.224;6.552;2023-01-31T07:03:10;19.80;;;3.95;;
51724;SDS011;37801;53.224;6.552;2023-01-31T07:05:37;15.55;;;3.58;;
51724;SDS011;37801;53.224;6.552;2023-01-31T07:08:03;15.43;;;3.65;;
51724;SDS011;37801;53.224;6.552;2023-01-31T07:10:30;18.38;;;4.28;;
51724;SDS011;37801;53.224;6.552;2023-01-31T07:12:56;15.07;;;3.08;;
51724;SDS011;37801;53.224;6.552;2023-01-31T07:15:22;21.75;;;4.30;;
51724;SDS011;37801;53.224;6.552;2023-01-31T07:17:48;23.15;;;3.22;;
51724;SDS011;37801;53.224;6.552;2023-01-31T07:20:14;19.52;;;3.95;;
51724;SDS011;37801;53.224;6.552;2023-01-31T07:22:40;18.33;;;3.70;;
51724;SDS011;37801;53.224;6.552;2023-01-31T07:25:07;20.45;;;3.70;;
51724;SDS011;37801;53.224;6.552;2023-01-31T07:27:33;21.63;;;4.28;;
51724;SDS011;37801;53.224;6.552;2023-01-31T07:29:59;13.40;;;3.25;;
51724;SDS011;37801;53.224;6.552;2023-01-31T07:32:27;21.63;;;4.05;;
51724;SDS011;37801;53.224;6.552;2023-01-31T07:34:53;15.40;;;2.88;;
51724;SDS011;37801;53.224;6.552;2023-01-31T07:37:20;18.10;;;3.30;;
51724;SDS011;37801;53.224;6.552;2023-01-31T07:39:46;23.00;;;4.07;;
51724;SDS011;37801;53.224;6.552;2023-01-31T07:42:12;14.75;;;3.10;;
51724;SDS011;37801;53.224;6.552;2023-01-31T07:44:38;14.90;;;3.03;;
51724;SDS011;37801;53.224;6.552;2023-01-31T07:47:04;17.48;;;3.50;;
51724;SDS011;37801;53.224;6.552;2023-01-31T07:49:30;17.88;;;3.60;;
51724;SDS011;37801;53.224;6.552;2023-01-31T07:51:56;17.50;;;3.55;;
51724;SDS011;37801;53.224;6.552;2023-01-31T07:54:22;22.02;;;3.38;;
51724;SDS011;37801;53.224;6.552;2023-01-31T07:56:49;17.35;;;3.35;;
51724;SDS011;37801;53.224;6.552;2023-01-31T07:59:15;18.80;;;4.18;;
51724;SDS011;37801;53.224;6.552;2023-01-31T08:01:41;18.77;;;3.53;;
51724;SDS011;37801;53.224;6.552;2023-01-31T08:04:26;20.17;;;4.05;;
51724;SDS011;37801;53.224;6.552;2023-01-31T08:06:53;12.35;;;2.28;;
51724;SDS011;37801;53.224;6.552;2023-01-31T08:09:19;12.52;;;2.67;;
51724;SDS011;37801;53.224;6.552;2023-01-31T08:11:45;13.32;;;2.58;;
51724;SDS011;37801;53.224;6.552;2023-01-31T08:14:12;15.18;;;2.95;;
51724;SDS011;37801;53.224;6.552;2023-01-31T08:16:38;11.02;;;2.78;;
51724;SDS011;37801;53.224;6.552;2023-01-31T08:19:04;15.65;;;3.22;;
51724;SDS011;37801;53.224;6.552;2023-01-31T08:21:30;10.60;;;3.05;;
51724;SDS011;37801;53.224;6.552;2023-01-31T08:23:56;15.60;;;2.70;;
51724;SDS011;37801;53.224;6.552;2023-01-31T08:26:23;13.77;;;2.60;;
51724;SDS011;37801;53.224;6.552;2023-01-31T08:28:49;14.30;;;3.22;;
51724;SDS011;37801;53.224;6.552;2023-01-31T08:31:21;19.08;;;2.83;;
51724;SDS011;37801;53.224;6.552;2023-01-31T08:33:47;12.80;;;2.47;;
51724;SDS011;37801;53.224;6.552;2023-01-31T08:36:35;14.85;;;3.05;;
51724;SDS011;37801;53.224;6.552;2023-01-31T08:39:02;19.90;;;2.72;;
51724;SDS011;37801;53.224;6.552;2023-01-31T08:41:29;18.58;;;3.13;;
51724;SDS011;37801;53.224;6.552;2023-01-31T08:43:55;18.67;;;3.25;;
51724;SDS011;37801;53.224;6.552;2023-01-31T08:46:29;18.25;;;3.50;;
51724;SDS011;37801;53.224;6.552;2023-01-31T08:48:55;17.92;;;2.90;;
51724;SDS011;37801;53.224;6.552;2023-01-31T08:51:21;17.25;;;2.88;;
51724;SDS011;37801;53.224;6.552;2023-01-31T08:53:48;15.95;;;2.60;;
51724;SDS011;37801;53.224;6.552;2023-01-31T08:56:14;18.25;;;3.08;;
51724;SDS011;37801;53.224;6.552;2023-01-31T08:58:41;12.93;;;2.65;;
51724;SDS011;37801;53.224;6.552;2023-01-31T09:01:11;14.05;;;3.15;;
51724;SDS011;37801;53.224;6.552;2023-01-31T09:03:38;16.52;;;3.15;;
51724;SDS011;37801;53.224;6.552;2023-01-31T09:06:06;19.38;;;3.22;;
51724;SDS011;37801;53.224;6.552;2023-01-31T09:08:33;15.55;;;2.90;;
51724;SDS011;37801;53.224;6.552;2023-01-31T09:10:59;17.50;;;3.30;;
51724;SDS011;37801;53.224;6.552;2023-01-31T09:13:26;15.20;;;3.47;;
51724;SDS011;37801;53.224;6.552;2023-01-31T09:15:59;14.95;;;2.80;;
51724;SDS011;37801;53.224;6.552;2023-01-31T09:18:26;19.58;;;3.78;;
51724;SDS011;37801;53.224;6.552;2023-01-31T09:20:52;12.27;;;3.25;;
51724;SDS011;37801;53.224;6.552;2023-01-31T09:23:18;16.40;;;2.95;;
51724;SDS011;37801;53.224;6.552;2023-01-31T09:25:51;19.52;;;3.55;;
51724;SDS011;37801;53.224;6.552;2023-01-31T09:28:18;10.55;;;2.83;;
51724;SDS011;37801;53.224;6.552;2023-01-31T09:30:44;16.98;;;2.72;;
51724;SDS011;37801;53.224;6.552;2023-01-31T09:33:10;19.88;;;3.08;;
51724;SDS011;37801;53.224;6.552;2023-01-31T09:35:36;15.00;;;2.65;;
51724;SDS011;37801;53.224;6.552;2023-01-31T09:38:02;15.93;;;3.40;;
51724;SDS011;37801;53.224;6.552;2023-01-31T09:40:30;20.92;;;3.17;;
51724;SDS011;37801;53.224;6.552;2023-01-31T09:42:57;19.60;;;3.00;;
51724;SDS011;37801;53.224;6.552;2023-01-31T09:45:33;17.73;;;3.10;;
51724;SDS011;37801;53.224;6.552;2023-01-31T09:52:55;17.40;;;3.03;;
51724;SDS011;37801;53.224;6.552;2023-01-31T09:55:27;19.83;;;3.33;;
51724;SDS011;37801;53.224;6.552;2023-01-31T09:58:03;22.42;;;3.60;;
51724;SDS011;37801;53.224;6.552;2023-01-31T10:00:45;15.00;;;2.90;;
51724;SDS011;37801;53.224;6.552;2023-01-31T10:13:50;20.42;;;3.28;;
51724;SDS011;37801;53.224;6.552;2023-01-31T10:16:26;15.57;;;3.65;;
51724;SDS011;37801;53.224;6.552;2023-01-31T10:18:55;19.67;;;2.92;;
51724;SDS011;37801;53.224;6.552;2023-01-31T10:21:24;16.83;;;3.22;;
51724;SDS011;37801;53.224;6.552;2023-01-31T10:23:55;17.50;;;3.40;;
51724;SDS011;37801;53.224;6.552;2023-01-31T10:26:33;18.63;;;3.25;;
51724;SDS011;37801;53.224;6.552;2023-01-31T10:33:56;17.90;;;3.10;;
51724;SDS011;37801;53.224;6.552;2023-01-31T10:36:33;11.23;;;2.70;;
51724;SDS011;37801;53.224;6.552;2023-01-31T10:41:37;11.27;;;2.67;;
51724;SDS011;37801;53.224;6.552;2023-01-31T10:44:06;17.00;;;3.63;;
51724;SDS011;37801;53.224;6.552;2023-01-31T10:46:35;13.88;;;2.65;;
51724;SDS011;37801;53.224;6.552;2023-01-31T10:49:01;9.63;;;2.53;;
51724;SDS011;37801;53.224;6.552;2023-01-31T10:56:33;13.10;;;2.80;;
51724;SDS011;37801;53.224;6.552;2023-01-31T10:59:01;14.13;;;2.53;;
51724;SDS011;37801;53.224;6.552;2023-01-31T11:01:29;10.77;;;2.45;;
51724;SDS011;37801;53.224;6.552;2023-01-31T11:03:55;17.80;;;3.08;;
51724;SDS011;37801;53.224;6.552;2023-01-31T11:06:22;15.77;;;3.25;;
51724;SDS011;37801;53.224;6.552;2023-01-31T11:08:58;18.52;;;3.45;;
51724;SDS011;37801;53.224;6.552;2023-01-31T11:11:25;16.02;;;3.33;;
51724;SDS011;37801;53.224;6.552;2023-01-31T11:16:21;18.00;;;3.53;;
51724;SDS011;37801;53.224;6.552;2023-01-31T11:18:48;20.25;;;3.58;;
51724;SDS011;37801;53.224;6.552;2023-01-31T11:21:22;14.18;;;3.28;;
51724;SDS011;37801;53.224;6.552;2023-01-31T11:23:49;16.88;;;3.08;;
51724;SDS011;37801;53.224;6.552;2023-01-31T11:26:32;19.38;;;3.28;;
51724;SDS011;37801;53.224;6.552;2023-01-31T11:28:59;16.17;;;2.67;;
51724;SDS011;37801;53.224;6.552;2023-01-31T11:31:31;15.73;;;2.45;;
51724;SDS011;37801;53.224;6.552;2023-01-31T11:36:24;13.88;;;2.78;;
51724;SDS011;37801;53.224;6.552;2023-01-31T11:38:51;16.45;;;3.30;;
51724;SDS011;37801;53.224;6.552;2023-01-31T11:44:26;19.55;;;3.03;;
51724;SDS011;37801;53.224;6.552;2023-01-31T11:46:52;15.05;;;3.15;;
51724;SDS011;37801;53.224;6.552;2023-01-31T11:51:45;14.40;;;3.20;;
51724;SDS011;37801;53.224;6.552;2023-01-31T11:54:13;20.02;;;3.53;;
51724;SDS011;37801;53.224;6.552;2023-01-31T11:56:43;12.48;;;2.95;;
51724;SDS011;37801;53.224;6.552;2023-01-31T11:59:10;14.98;;;3.47;;
51724;SDS011;37801;53.224;6.552;2023-01-31T12:02:12;14.85;;;3.28;;
51724;SDS011;37801;53.224;6.552;2023-01-31T12:04:35;14.80;;;3.40;;
51724;SDS011;37801;53.224;6.552;2023-01-31T12:07:22;18.83;;;3.22;;
51724;SDS011;37801;53.224;6.552;2023-01-31T12:09:48;17.95;;;3.05;;
51724;SDS011;37801;53.224;6.552;2023-01-31T12:14:58;17.25;;;3.10;;
51724;SDS011;37801;53.224;6.552;2023-01-31T12:17:24;14.07;;;3.00;;
51724;SDS011;37801;53.224;6.552;2023-01-31T12:22:29;26.50;;;4.80;;
51724;SDS011;37801;53.224;6.552;2023-01-31T12:30:14;18.90;;;4.03;;
51724;SDS011;37801;53.224;6.552;2023-01-31T12:40:39;18.30;;;3.35;;
51724;SDS011;37801;53.224;6.552;2023-01-31T12:43:11;15.10;;;3.03;;
51724;SDS011;37801;53.224;6.552;2023-01-31T12:51:16;20.55;;;3.47;;
51724;SDS011;37801;53.224;6.552;2023-01-31T13:04:47;18.08;;;3.60;;
51724;SDS011;37801;53.224;6.552;2023-01-31T13:07:19;24.77;;;3.38;;
51724;SDS011;37801;53.224;6.552;2023-01-31T13:09:48;16.75;;;3.67;;
51724;SDS011;37801;53.224;6.552;2023-01-31T13:12:20;19.98;;;3.30;;
51724;SDS011;37801;53.224;6.552;2023-01-31T13:14:56;16.60;;;3.53;;
51724;SDS011;37801;53.224;6.552;2023-01-31T13:17:28;13.75;;;2.90;;
51724;SDS011;37801;53.224;6.552;2023-01-31T13:19:58;18.45;;;3.55;;
51724;SDS011;37801;53.224;6.552;2023-01-31T13:22:27;17.60;;;3.10;;
51724;SDS011;37801;53.224;6.552;2023-01-31T13:25:56;20.15;;;4.13;;
51724;SDS011;37801;53.224;6.552;2023-01-31T13:27:57;17.83;;;3.13;;
51724;SDS011;37801;53.224;6.552;2023-01-31T13:30:38;14.55;;;3.03;;
51724;SDS011;37801;53.224;6.552;2023-01-31T13:33:22;20.05;;;3.50;;
51724;SDS011;37801;53.224;6.552;2023-01-31T13:38:25;26.98;;;4.45;;
51724;SDS011;37801;53.224;6.552;2023-01-31T13:40:53;24.88;;;3.20;;
51724;SDS011;37801;53.224;6.552;2023-01-31T13:43:21;17.17;;;3.25;;
51724;SDS011;37801;53.224;6.552;2023-01-31T13:45:48;16.92;;;3.17;;
51724;SDS011;37801;53.224;6.552;2023-01-31T13:48:33;14.85;;;3.47;;
51724;SDS011;37801;53.224;6.552;2023-01-31T13:51:10;20.67;;;3.05;;
51724;SDS011;37801;53.224;6.552;2023-01-31T13:54:27;26.30;;;4.43;;
51724;SDS011;37801;53.224;6.552;2023-01-31T13:56:29;28.08;;;4.60;;
51724;SDS011;37801;53.224;6.552;2023-01-31T13:58:56;19.92;;;3.40;;
51724;SDS011;37801;53.224;6.552;2023-01-31T14:01:33;19.10;;;3.67;;
51724;SDS011;37801;53.224;6.552;2023-01-31T14:11:50;26.17;;;3.50;;
51724;SDS011;37801;53.224;6.552;2023-01-31T14:16:54;20.10;;;3.45;;
51724;SDS011;37801;53.224;6.552;2023-01-31T14:22:03;21.33;;;4.47;;
51724;SDS011;37801;53.224;6.552;2023-01-31T14:29:44;14.73;;;3.33;;
51724;SDS011;37801;53.224;6.552;2023-01-31T14:32:15;19.38;;;3.70;;
51724;SDS011;37801;53.224;6.552;2023-01-31T14:34:46;14.60;;;2.75;;
51724;SDS011;37801;53.224;6.552;2023-01-31T14:37:49;17.45;;;3.33;;
51724;SDS011;37801;53.224;6.552;2023-01-31T14:40:14;19.17;;;3.58;;
51724;SDS011;37801;53.224;6.552;2023-01-31T14:58:40;28.60;;;4.15;;
51724;SDS011;37801;53.224;6.552;2023-01-31T15:01:07;25.17;;;4.65;;
51724;SDS011;37801;53.224;6.552;2023-01-31T15:03:33;20.20;;;3.63;;
51724;SDS011;37801;53.224;6.552;2023-01-31T15:06:46;26.83;;;3.63;;
51724;SDS011;37801;53.224;6.552;2023-01-31T15:08:50;24.80;;;4.13;;
51724;SDS011;37801;53.224;6.552;2023-01-31T15:11:38;17.23;;;4.05;;
51724;SDS011;37801;53.224;6.552;2023-01-31T15:14:18;17.70;;;3.60;;
51724;SDS011;37801;53.224;6.552;2023-01-31T15:16:44;17.40;;;3.97;;
51724;SDS011;37801;53.224;6.552;2023-01-31T15:19:20;18.10;;;3.17;;
51724;SDS011;37801;53.224;6.552;2023-01-31T15:21:49;24.55;;;3.58;;
51724;SDS011;37801;53.224;6.552;2023-01-31T15:24:34;17.83;;;3.53;;
51724;SDS011;37801;53.224;6.552;2023-01-31T15:27:02;23.15;;;4.63;;
51724;SDS011;37801;53.224;6.552;2023-01-31T15:29:35;20.98;;;4.55;;
51724;SDS011;37801;53.224;6.552;2023-01-31T15:32:13;29.58;;;4.65;;
51724;SDS011;37801;53.224;6.552;2023-01-31T15:34:47;20.60;;;4.10;;
51724;SDS011;37801;53.224;6.552;2023-01-31T15:37:20;30.83;;;4.53;;
51724;SDS011;37801;53.224;6.552;2023-01-31T15:42:27;32.10;;;4.80;;
51724;SDS011;37801;53.224;6.552;2023-01-31T15:47:38;28.15;;;4.68;;
51724;SDS011;37801;53.224;6.552;2023-01-31T15:50:17;19.33;;;4.32;;
51724;SDS011;37801;53.224;6.552;2023-01-31T15:52:44;33.78;;;5.57;;
51724;SDS011;37801;53.224;6.552;2023-01-31T15:55:15;25.13;;;4.53;;
51724;SDS011;37801;53.224;6.552;2023-01-31T15:57:49;30.75;;;5.22;;
51724;SDS011;37801;53.224;6.552;2023-01-31T16:00:21;24.20;;;4.70;;
51724;SDS011;37801;53.224;6.552;2023-01-31T16:02:48;24.80;;;4.53;;
51724;SDS011;37801;53.224;6.552;2023-01-31T16:05:20;36.60;;;6.03;;
51724;SDS011;37801;53.224;6.552;2023-01-31T16:07:47;30.52;;;6.03;;
51724;SDS011;37801;53.224;6.552;2023-01-31T16:10:13;31.95;;;5.57;;
51724;SDS011;37801;53.224;6.552;2023-01-31T16:12:42;28.60;;;4.43;;
51724;SDS011;37801;53.224;6.552;2023-01-31T16:15:13;39.20;;;5.82;;
51724;SDS011;37801;53.224;6.552;2023-01-31T16:17:41;29.55;;;5.25;;
51724;SDS011;37801;53.224;6.552;2023-01-31T16:22:54;32.78;;;4.43;;
51724;SDS011;37801;53.224;6.552;2023-01-31T16:25:21;43.30;;;5.68;;
51724;SDS011;37801;53.224;6.552;2023-01-31T16:27:47;27.23;;;5.07;;
51724;SDS011;37801;53.224;6.552;2023-01-31T16:30:13;45.17;;;11.05;;
51724;SDS011;37801;53.224;6.552;2023-01-31T16:32:40;33.13;;;5.80;;
51724;SDS011;37801;53.224;6.552;2023-01-31T16:35:18;21.38;;;4.15;;
51724;SDS011;37801;53.224;6.552;2023-01-31T16:37:45;25.35;;;5.32;;
51724;SDS011;37801;53.224;6.552;2023-01-31T16:40:24;24.23;;;4.15;;
51724;SDS011;37801;53.224;6.552;2023-01-31T16:43:07;24.50;;;4.43;;
51724;SDS011;37801;53.224;6.552;2023-01-31T16:45:34;28.15;;;4.47;;
51724;SDS011;37801;53.224;6.552;2023-01-31T16:50:45;21.83;;;3.60;;
51724;SDS011;37801;53.224;6.552;2023-01-31T16:55:37;20.40;;;3.75;;
51724;SDS011;37801;53.224;6.552;2023-01-31T16:58:04;19.08;;;3.67;;
51724;SDS011;37801;53.224;6.552;2023-01-31T17:02:57;26.23;;;4.68;;
51724;SDS011;37801;53.224;6.552;2023-01-31T17:05:24;21.90;;;4.68;;
51724;SDS011;37801;53.224;6.552;2023-01-31T17:07:55;21.38;;;4.68;;
51724;SDS011;37801;53.224;6.552;2023-01-31T17:10:25;23.70;;;4.30;;
51724;SDS011;37801;53.224;6.552;2023-01-31T17:15:36;31.73;;;5.72;;
51724;SDS011;37801;53.224;6.552;2023-01-31T17:18:02;27.77;;;4.82;;
51724;SDS011;37801;53.224;6.552;2023-01-31T17:20:28;27.80;;;4.82;;
51724;SDS011;37801;53.224;6.552;2023-01-31T17:22:54;21.05;;;3.90;;
51724;SDS011;37801;53.224;6.552;2023-01-31T17:25:22;31.70;;;5.53;;
51724;SDS011;37801;53.224;6.552;2023-01-31T17:27:48;24.95;;;4.30;;
51724;SDS011;37801;53.224;6.552;2023-01-31T17:30:15;22.25;;;5.03;;
51724;SDS011;37801;53.224;6.552;2023-01-31T17:32:42;26.73;;;4.72;;
51724;SDS011;37801;53.224;6.552;2023-01-31T17:35:15;26.25;;;4.43;;